Time;durP1;ratioP1;P1;durP2;ratioP2;P2;SDS_P1;SDS_P2;PMS_P1;PMS_P2;Temp;Humidity;BMP_temperature;BMP_pressure;BME280_temperature;BME280_humidity;BME280_pressure;Samples;Min_cycle;Max_cycle;Signal;HPM_P1;HPM_P2
2022/05/21 00:00:46;;;;;;;7.00;2.70;;;;;;;;;;4946951;29;20087;-57
2022/05/21 00:03:12;;;;;;;6.30;3.20;;;;;;;;;;4946458;29;20398;-58
2022/05/21 00:05:39;;;;;;;6.38;2.85;;;;;;;;;;4946872;29;20576;-58
2022/05/21 00:08:06;;;;;;;7.20;3.00;;;;;;;;;;4946326;29;20051;-58
2022/05/21 00:10:32;;;;;;;6.68;3.42;;;;;;;;;;4947403;28;20496;-58
2022/05/21 00:13:00;;;;;;;8.73;4.03;;;;;;;;;;4946650;29;20505;-58
2022/05/21 00:15:27;;;;;;;11.77;4.22;;;;;;;;;;4946499;28;20051;-58
2022/05/21 00:17:53;;;;;;;6.63;4.00;;;;;;;;;;4946557;29;20058;-58
2022/05/21 00:23:15;;;;;;;6.80;3.47;;;;;;;;;;4945977;29;20058;-58
2022/05/21 00:25:42;;;;;;;11.55;4.30;;;;;;;;;;4950088;29;20047;-58
2022/05/21 00:28:08;;;;;;;10.77;5.18;;;;;;;;;;4950995;29;20035;-58
2022/05/21 00:30:35;;;;;;;13.70;5.72;;;;;;;;;;4951161;29;20057;-57
2022/05/21 00:33:01;;;;;;;10.88;5.28;;;;;;;;;;4951133;29;20486;-58
2022/05/21 00:35:28;;;;;;;13.07;5.88;;;;;;;;;;4950406;28;20043;-58
2022/05/21 00:37:54;;;;;;;12.15;6.35;;;;;;;;;;4949914;28;20086;-58
2022/05/21 00:40:22;;;;;;;11.25;7.05;;;;;;;;;;4950079;29;20122;-57
2022/05/21 00:42:48;;;;;;;14.18;8.88;;;;;;;;;;4950546;28;20050;-58
2022/05/21 00:45:15;;;;;;;13.43;7.72;;;;;;;;;;4950476;28;20106;-58
2022/05/21 00:47:41;;;;;;;19.13;9.63;;;;;;;;;;4950830;29;20074;-58
2022/05/21 00:50:09;;;;;;;17.48;9.68;;;;;;;;;;4950508;29;20051;-58
2022/05/21 00:52:36;;;;;;;19.30;10.07;;;;;;;;;;4948193;29;20047;-58
2022/05/21 00:55:05;;;;;;;24.00;10.18;;;;;;;;;;4950621;29;20044;-57
2022/05/21 00:57:33;;;;;;;20.33;10.70;;;;;;;;;;4950546;29;20055;-58
2022/05/21 01:00:05;;;;;;;25.13;13.23;;;;;;;;;;4950375;29;20043;-58
2022/05/21 01:02:34;;;;;;;27.08;12.23;;;;;;;;;;4950151;29;20047;-58
2022/05/21 01:05:02;;;;;;;26.88;13.48;;;;;;;;;;4950113;29;20050;-58
2022/05/21 01:07:28;;;;;;;32.10;12.88;;;;;;;;;;4949141;28;20051;-58
2022/05/21 01:09:55;;;;;;;24.17;13.68;;;;;;;;;;4950281;28;20050;-58
2022/05/21 01:12:25;;;;;;;24.10;13.70;;;;;;;;;;4949617;29;20047;-58
2022/05/21 01:14:52;;;;;;;26.33;13.98;;;;;;;;;;4949860;29;20139;-57
2022/05/21 01:17:19;;;;;;;25.38;13.82;;;;;;;;;;4949469;29;20059;-58
2022/05/21 01:19:53;;;;;;;27.50;14.73;;;;;;;;;;4950038;29;20039;-58
2022/05/21 01:22:24;;;;;;;30.42;15.15;;;;;;;;;;4948721;29;20122;-58
2022/05/21 01:24:50;;;;;;;29.30;14.98;;;;;;;;;;4950019;29;20098;-58
2022/05/21 01:27:16;;;;;;;29.33;14.75;;;;;;;;;;4949447;29;20066;-58
2022/05/21 01:29:42;;;;;;;28.48;15.38;;;;;;;;;;4949409;29;20058;-58
2022/05/21 01:32:16;;;;;;;31.55;15.77;;;;;;;;;;4949761;29;20448;-58
2022/05/21 01:34:42;;;;;;;33.97;15.43;;;;;;;;;;4949616;28;20446;-58
2022/05/21 01:37:08;;;;;;;29.63;16.70;;;;;;;;;;4948136;28;20050;-58
2022/05/21 01:39:34;;;;;;;33.13;16.00;;;;;;;;;;4949710;29;20074;-58
2022/05/21 01:42:01;;;;;;;27.08;16.48;;;;;;;;;;4948479;29;20687;-58
2022/05/21 01:44:39;;;;;;;36.00;15.98;;;;;;;;;;4948781;29;20103;-58
2022/05/21 01:47:07;;;;;;;29.95;17.15;;;;;;;;;;4949558;29;20066;-58
2022/05/21 01:49:33;;;;;;;31.38;16.65;;;;;;;;;;4939760;28;20051;-58
2022/05/21 01:52:00;;;;;;;32.78;14.95;;;;;;;;;;4948539;28;20062;-58
2022/05/21 01:54:26;;;;;;;32.75;16.90;;;;;;;;;;4948770;28;20082;-58
2022/05/21 01:56:52;;;;;;;32.30;15.63;;;;;;;;;;4949215;28;20486;-58
2022/05/21 01:59:18;;;;;;;32.60;16.15;;;;;;;;;;4948946;28;20082;-58
2022/05/21 02:01:44;;;;;;;29.23;15.93;;;;;;;;;;4949332;28;20083;-58
2022/05/21 02:04:10;;;;;;;31.33;16.17;;;;;;;;;;4949277;28;20074;-58
2022/05/21 02:06:37;;;;;;;35.58;16.70;;;;;;;;;;4948231;28;20126;-58
2022/05/21 02:09:03;;;;;;;38.38;18.33;;;;;;;;;;4949038;28;20564;-58
2022/05/21 02:11:29;;;;;;;33.78;16.95;;;;;;;;;;4948766;28;20051;-58
2022/05/21 02:13:55;;;;;;;30.83;16.92;;;;;;;;;;4947099;29;20134;-58
2022/05/21 02:16:22;;;;;;;31.85;17.77;;;;;;;;;;4948711;28;20047;-57
2022/05/21 02:18:48;;;;;;;36.08;17.08;;;;;;;;;;4949022;28;20090;-59
2022/05/21 02:21:14;;;;;;;32.75;18.30;;;;;;;;;;4948140;28;20051;-57
2022/05/21 02:23:40;;;;;;;38.47;18.95;;;;;;;;;;4948394;28;20506;-58
2022/05/21 02:26:06;;;;;;;35.28;18.98;;;;;;;;;;4948824;28;20490;-58
2022/05/21 02:28:33;;;;;;;33.58;18.90;;;;;;;;;;4948731;28;20050;-58
2022/05/21 02:30:59;;;;;;;43.55;19.20;;;;;;;;;;4948742;28;20042;-58
2022/05/21 02:33:25;;;;;;;36.33;20.15;;;;;;;;;;4948312;28;20054;-58
2022/05/21 02:35:51;;;;;;;36.53;20.13;;;;;;;;;;4947791;28;20043;-58
2022/05/21 02:41:02;;;;;;;36.47;19.33;;;;;;;;;;4949024;29;20512;-58
2022/05/21 02:43:29;;;;;;;38.20;19.77;;;;;;;;;;4948260;28;20047;-58
2022/05/21 02:45:55;;;;;;;39.00;19.05;;;;;;;;;;4948556;28;20055;-58
2022/05/21 02:48:25;;;;;;;40.22;19.25;;;;;;;;;;4948033;28;20167;-58
2022/05/21 02:50:51;;;;;;;37.10;18.83;;;;;;;;;;4945456;29;20130;-58
2022/05/21 02:53:18;;;;;;;35.25;18.02;;;;;;;;;;4947892;29;20047;-58
2022/05/21 02:55:44;;;;;;;39.63;19.65;;;;;;;;;;4948023;29;20054;-58
2022/05/21 02:58:11;;;;;;;34.65;18.58;;;;;;;;;;4948242;29;20044;-58
2022/05/21 03:00:37;;;;;;;43.13;18.33;;;;;;;;;;4947921;29;20055;-58
2022/05/21 03:03:03;;;;;;;34.67;17.17;;;;;;;;;;4947983;29;20042;-58
2022/05/21 03:05:31;;;;;;;35.13;17.42;;;;;;;;;;4947978;29;20062;-58
2022/05/21 03:07:57;;;;;;;31.02;17.33;;;;;;;;;;4945900;29;20413;-58
2022/05/21 03:10:25;;;;;;;33.20;17.00;;;;;;;;;;4947335;29;20047;-59
2022/05/21 03:12:59;;;;;;;32.40;17.30;;;;;;;;;;4946646;29;20061;-58
2022/05/21 03:15:33;;;;;;;34.00;17.10;;;;;;;;;;4946858;29;20063;-58
2022/05/21 03:18:00;;;;;;;36.70;16.80;;;;;;;;;;4947815;29;20050;-58
2022/05/21 03:20:26;;;;;;;34.03;16.05;;;;;;;;;;4947345;29;20504;-58
2022/05/21 03:22:52;;;;;;;35.53;15.98;;;;;;;;;;4946978;29;20130;-57
2022/05/21 03:25:19;;;;;;;29.33;14.95;;;;;;;;;;4947324;29;20090;-58
2022/05/21 03:27:45;;;;;;;30.75;16.08;;;;;;;;;;4947463;29;20087;-58
2022/05/21 03:30:13;;;;;;;35.17;14.95;;;;;;;;;;4947726;29;20051;-58
2022/05/21 03:32:40;;;;;;;30.63;15.15;;;;;;;;;;4947429;29;20091;-59
2022/05/21 03:35:06;;;;;;;36.97;15.57;;;;;;;;;;4947272;29;20050;-58
2022/05/21 03:37:32;;;;;;;30.52;15.02;;;;;;;;;;4946776;29;20055;-58
2022/05/21 03:39:58;;;;;;;31.98;13.95;;;;;;;;;;4947448;29;20515;-58
2022/05/21 03:42:25;;;;;;;29.25;13.60;;;;;;;;;;4946649;29;20376;-58
2022/05/21 03:44:51;;;;;;;31.63;14.73;;;;;;;;;;4947496;29;20134;-58
2022/05/21 03:47:17;;;;;;;27.95;13.23;;;;;;;;;;4946952;29;20051;-58
2022/05/21 03:49:44;;;;;;;29.52;12.63;;;;;;;;;;4947173;29;20047;-58
2022/05/21 03:52:10;;;;;;;35.00;12.93;;;;;;;;;;4946550;29;20112;-58
2022/05/21 03:54:36;;;;;;;24.75;11.65;;;;;;;;;;4945550;29;20478;-58
2022/05/21 03:57:02;;;;;;;32.08;11.55;;;;;;;;;;4945747;29;20078;-58
2022/05/21 03:59:28;;;;;;;26.20;10.80;;;;;;;;;;4946520;28;20050;-58
2022/05/21 04:01:54;;;;;;;25.10;10.25;;;;;;;;;;4946962;29;20051;-58
2022/05/21 04:04:20;;;;;;;22.35;8.00;;;;;;;;;;4945396;29;20409;-59
2022/05/21 04:06:46;;;;;;;18.70;6.40;;;;;;;;;;4946424;29;20082;-58
2022/05/21 04:09:13;;;;;;;22.00;5.30;;;;;;;;;;4946899;29;20046;-58
2022/05/21 04:11:39;;;;;;;20.75;4.95;;;;;;;;;;4946366;29;20051;-59
2022/05/21 04:14:07;;;;;;;13.50;4.63;;;;;;;;;;4946504;29;20051;-58
2022/05/21 04:16:33;;;;;;;25.77;4.82;;;;;;;;;;4947008;29;20107;-58
2022/05/21 04:18:59;;;;;;;18.33;4.22;;;;;;;;;;4946744;29;20082;-58
2022/05/21 04:21:26;;;;;;;24.40;3.90;;;;;;;;;;4945882;29;20058;-58
2022/05/21 04:23:52;;;;;;;24.35;4.20;;;;;;;;;;4946905;29;20504;-58
2022/05/21 04:26:19;;;;;;;17.00;3.90;;;;;;;;;;4946199;29;20047;-58
2022/05/21 04:28:45;;;;;;;19.73;3.88;;;;;;;;;;4946805;29;20039;-58
2022/05/21 04:31:11;;;;;;;19.55;3.83;;;;;;;;;;4946420;29;20035;-59
2022/05/21 04:33:37;;;;;;;15.60;4.43;;;;;;;;;;4945922;29;20417;-58
2022/05/21 04:36:18;;;;;;;16.77;4.05;;;;;;;;;;4946093;29;20031;-58
2022/05/21 04:38:46;;;;;;;21.38;3.88;;;;;;;;;;4946163;29;20187;-59
2022/05/21 04:41:12;;;;;;;12.82;4.32;;;;;;;;;;4946047;29;20044;-58
2022/05/21 04:43:39;;;;;;;16.90;3.70;;;;;;;;;;4945638;29;20117;-58
2022/05/21 04:46:06;;;;;;;11.10;2.75;;;;;;;;;;4946191;29;20054;-59
2022/05/21 04:48:32;;;;;;;15.43;3.10;;;;;;;;;;4946433;29;20027;-58
2022/05/21 04:51:00;;;;;;;21.23;3.83;;;;;;;;;;4944847;29;20058;-58
2022/05/21 04:53:26;;;;;;;14.95;3.35;;;;;;;;;;4945666;29;20039;-58
2022/05/21 04:55:52;;;;;;;21.63;3.13;;;;;;;;;;4946212;29;20061;-58
2022/05/21 04:58:19;;;;;;;20.73;2.92;;;;;;;;;;4945628;29;20051;-58
2022/05/21 05:00:45;;;;;;;16.20;3.05;;;;;;;;;;4945781;29;20047;-58
2022/05/21 05:03:12;;;;;;;17.80;3.67;;;;;;;;;;4946003;29;20061;-58
2022/05/21 05:05:39;;;;;;;13.15;3.25;;;;;;;;;;4944551;29;20122;-58
2022/05/21 05:08:06;;;;;;;12.20;2.80;;;;;;;;;;4945987;29;20098;-58
2022/05/21 05:10:32;;;;;;;19.63;3.80;;;;;;;;;;4946193;28;20469;-58
2022/05/21 05:12:59;;;;;;;12.43;2.78;;;;;;;;;;4949558;29;20063;-58
2022/05/21 05:15:25;;;;;;;17.30;3.03;;;;;;;;;;4949670;29;20280;-58
2022/05/21 05:17:51;;;;;;;13.32;3.03;;;;;;;;;;4950106;29;20055;-58
2022/05/21 05:20:17;;;;;;;22.23;3.30;;;;;;;;;;4949126;29;20040;-58
2022/05/21 05:22:43;;;;;;;16.77;2.67;;;;;;;;;;4949006;29;20094;-57
2022/05/21 05:25:09;;;;;;;13.70;2.90;;;;;;;;;;4948084;29;20062;-58
2022/05/21 05:27:35;;;;;;;11.70;2.97;;;;;;;;;;4938219;29;20581;-58
2022/05/21 05:30:03;;;;;;;14.18;3.22;;;;;;;;;;4933728;29;20498;-57
2022/05/21 05:32:29;;;;;;;15.05;3.63;;;;;;;;;;4931816;29;20482;-57
2022/05/21 05:34:55;;;;;;;16.15;3.58;;;;;;;;;;4930619;29;20756;-57
2022/05/21 05:37:21;;;;;;;9.88;2.22;;;;;;;;;;4938372;29;20134;-58
2022/05/21 05:39:47;;;;;;;9.20;2.33;;;;;;;;;;4941291;29;20047;-57
2022/05/21 05:42:13;;;;;;;13.80;2.10;;;;;;;;;;4930178;29;20065;-57
2022/05/21 05:44:39;;;;;;;13.45;2.85;;;;;;;;;;4934403;29;20043;-58
2022/05/21 05:47:06;;;;;;;11.02;2.45;;;;;;;;;;4930793;29;20047;-58
2022/05/21 05:49:33;;;;;;;14.38;2.70;;;;;;;;;;4926930;29;20118;-58
2022/05/21 05:51:59;;;;;;;11.60;2.50;;;;;;;;;;4926023;29;20130;-57
2022/05/21 05:54:25;;;;;;;14.10;2.40;;;;;;;;;;4927238;29;20091;-58
2022/05/21 05:56:51;;;;;;;11.27;2.97;;;;;;;;;;4926370;29;20485;-58
2022/05/21 06:04:47;;;;;;;12.40;2.72;;;;;;;;;;4933061;29;20126;-58
2022/05/21 06:07:14;;;;;;;15.45;2.60;;;;;;;;;;4933779;29;20114;-58
2022/05/21 06:09:40;;;;;;;13.98;2.50;;;;;;;;;;4934721;29;20054;-58
2022/05/21 06:12:08;;;;;;;17.17;2.65;;;;;;;;;;4937026;29;20827;-58
2022/05/21 06:14:36;;;;;;;14.07;2.50;;;;;;;;;;4938634;29;20593;-57
2022/05/21 06:17:03;;;;;;;15.20;2.88;;;;;;;;;;4943028;29;20081;-58
2022/05/21 06:19:30;;;;;;;14.95;2.70;;;;;;;;;;4940538;29;20094;-58
2022/05/21 06:21:58;;;;;;;18.13;2.80;;;;;;;;;;4940999;28;20051;-57
2022/05/21 06:24:24;;;;;;;16.23;2.83;;;;;;;;;;4935647;29;20803;-57
2022/05/21 06:26:51;;;;;;;16.45;3.08;;;;;;;;;;4929244;29;20044;-57
2022/05/21 06:29:17;;;;;;;11.55;2.13;;;;;;;;;;4929786;29;20486;-57
2022/05/21 06:31:43;;;;;;;13.32;2.97;;;;;;;;;;4931748;29;20035;-58
2022/05/21 06:34:09;;;;;;;15.85;2.70;;;;;;;;;;4933285;29;20071;-58
2022/05/21 06:36:36;;;;;;;10.45;2.35;;;;;;;;;;4931176;29;20134;-58
2022/05/21 06:39:02;;;;;;;19.15;3.28;;;;;;;;;;4932500;29;20099;-58
2022/05/21 06:41:31;;;;;;;17.92;2.53;;;;;;;;;;4930395;29;20532;-58
2022/05/21 06:43:58;;;;;;;14.50;2.70;;;;;;;;;;4937717;28;20040;-58
2022/05/21 06:46:24;;;;;;;12.30;2.80;;;;;;;;;;4928613;29;20048;-59
2022/05/21 06:48:51;;;;;;;15.00;2.58;;;;;;;;;;4930034;29;20493;-58
2022/05/21 06:51:17;;;;;;;12.02;3.03;;;;;;;;;;4930838;29;20047;-59
2022/05/21 06:53:43;;;;;;;15.27;2.25;;;;;;;;;;4933922;29;20039;-59
2022/05/21 06:56:12;;;;;;;11.68;2.88;;;;;;;;;;4929081;29;20036;-59
2022/05/21 06:58:38;;;;;;;13.20;2.40;;;;;;;;;;4930548;29;20047;-59
2022/05/21 07:01:05;;;;;;;15.65;2.78;;;;;;;;;;4937069;29;20065;-58
2022/05/21 07:03:31;;;;;;;19.13;3.08;;;;;;;;;;4948103;28;20122;-59
2022/05/21 07:08:42;;;;;;;16.35;2.88;;;;;;;;;;4931026;29;20082;-59
2022/05/21 07:11:08;;;;;;;13.02;3.08;;;;;;;;;;4930215;29;20035;-59
2022/05/21 07:13:34;;;;;;;18.50;2.92;;;;;;;;;;4925663;29;20102;-59
2022/05/21 07:16:01;;;;;;;6.50;2.35;;;;;;;;;;4939354;29;20139;-58
2022/05/21 07:18:27;;;;;;;14.80;2.63;;;;;;;;;;4935527;29;20047;-58
2022/05/21 07:20:54;;;;;;;13.05;2.72;;;;;;;;;;4936827;29;20587;-58
2022/05/21 07:23:21;;;;;;;12.75;2.13;;;;;;;;;;4942141;29;20086;-58
2022/05/21 07:25:48;;;;;;;11.45;1.88;;;;;;;;;;4944207;29;20113;-58
2022/05/21 07:28:14;;;;;;;15.48;2.55;;;;;;;;;;4943725;29;20055;-59
2022/05/21 07:30:42;;;;;;;8.95;1.45;;;;;;;;;;4940260;29;20481;-58
2022/05/21 07:33:10;;;;;;;13.20;1.60;;;;;;;;;;4943903;28;20122;-58
2022/05/21 07:35:37;;;;;;;4.80;1.33;;;;;;;;;;4942377;29;20126;-59
2022/05/21 07:38:05;;;;;;;10.13;1.67;;;;;;;;;;4944651;29;20047;-58
2022/05/21 07:40:31;;;;;;;8.30;1.50;;;;;;;;;;4944798;29;20083;-58
2022/05/21 07:42:57;;;;;;;9.57;2.00;;;;;;;;;;4944378;29;20046;-58
2022/05/21 07:45:23;;;;;;;7.65;2.00;;;;;;;;;;4939959;29;20046;-58
2022/05/21 07:47:50;;;;;;;6.63;1.27;;;;;;;;;;4943453;29;20039;-58
2022/05/21 07:50:16;;;;;;;6.05;1.67;;;;;;;;;;4942692;29;20032;-59
2022/05/21 07:52:42;;;;;;;8.68;2.20;;;;;;;;;;4942006;29;20058;-58
2022/05/21 07:55:09;;;;;;;9.27;1.55;;;;;;;;;;4945489;29;20043;-58
2022/05/21 07:57:35;;;;;;;7.20;1.45;;;;;;;;;;4945938;29;20047;-58
2022/05/21 08:00:01;;;;;;;14.13;2.17;;;;;;;;;;4947103;28;20043;-58
2022/05/21 08:02:28;;;;;;;10.30;1.52;;;;;;;;;;4946612;29;20050;-58
2022/05/21 08:04:54;;;;;;;8.00;1.50;;;;;;;;;;4946529;28;20039;-58
2022/05/21 08:07:21;;;;;;;11.55;2.20;;;;;;;;;;4945646;29;20485;-58
2022/05/21 08:09:47;;;;;;;12.02;1.80;;;;;;;;;;4945048;29;20047;-58
2022/05/21 08:12:14;;;;;;;9.35;1.45;;;;;;;;;;4946348;28;20047;-58
2022/05/21 08:14:41;;;;;;;11.65;1.90;;;;;;;;;;4945811;28;20047;-59
2022/05/21 08:17:08;;;;;;;10.15;1.52;;;;;;;;;;4946705;29;20043;-58
2022/05/21 08:19:34;;;;;;;7.75;1.40;;;;;;;;;;4946736;28;20046;-59
2022/05/21 08:27:30;;;;;;;7.45;1.50;;;;;;;;;;4946921;28;20045;-58
2022/05/21 08:29:57;;;;;;;10.88;2.10;;;;;;;;;;4946291;29;20039;-58
2022/05/21 08:32:23;;;;;;;10.30;1.67;;;;;;;;;;4946050;28;20043;-59
2022/05/21 08:34:52;;;;;;;8.52;1.08;;;;;;;;;;4946171;29;20051;-58
2022/05/21 08:37:20;;;;;;;10.18;1.83;;;;;;;;;;4945995;29;20076;-58
2022/05/21 08:39:46;;;;;;;8.10;1.65;;;;;;;;;;4946435;28;20043;-58
2022/05/21 08:42:16;;;;;;;13.40;1.77;;;;;;;;;;4946365;29;20655;-58
2022/05/21 08:44:46;;;;;;;9.63;1.80;;;;;;;;;;4946741;28;20386;-58
2022/05/21 08:47:23;;;;;;;9.00;1.50;;;;;;;;;;4950132;28;20065;-58
2022/05/21 08:49:58;;;;;;;5.85;1.67;;;;;;;;;;4949389;29;20043;-59
2022/05/21 08:52:25;;;;;;;8.68;1.67;;;;;;;;;;4949709;29;20493;-59
2022/05/21 08:54:52;;;;;;;5.50;1.33;;;;;;;;;;4950439;29;20050;-59
2022/05/21 08:57:22;;;;;;;13.80;1.75;;;;;;;;;;4949565;29;20046;-59
2022/05/21 08:59:51;;;;;;;5.00;1.20;;;;;;;;;;4949753;29;20047;-59
2022/05/21 09:02:28;;;;;;;9.30;1.58;;;;;;;;;;4949217;29;20077;-59
2022/05/21 09:04:54;;;;;;;8.75;1.60;;;;;;;;;;4949203;29;20133;-59
2022/05/21 09:07:39;;;;;;;7.93;1.30;;;;;;;;;;4949679;29;20043;-59
2022/05/21 09:13:34;;;;;;;7.93;1.10;;;;;;;;;;4947773;29;20050;-58
2022/05/21 09:18:47;;;;;;;8.70;1.10;;;;;;;;;;4948194;29;20062;-59
2022/05/21 09:21:17;;;;;;;12.15;1.40;;;;;;;;;;4948543;29;20047;-59
2022/05/21 09:23:53;;;;;;;6.00;1.05;;;;;;;;;;4937942;29;20044;-59
2022/05/21 09:26:21;;;;;;;11.18;1.40;;;;;;;;;;4932227;29;20047;-59
2022/05/21 09:28:48;;;;;;;8.48;1.38;;;;;;;;;;4939417;29;20039;-59
2022/05/21 09:31:21;;;;;;;8.20;1.20;;;;;;;;;;4930091;29;20056;-60
2022/05/21 09:33:47;;;;;;;8.23;1.75;;;;;;;;;;4940818;29;20494;-59
2022/05/21 09:36:18;;;;;;;8.20;1.40;;;;;;;;;;4946104;29;20107;-60
2022/05/21 09:38:52;;;;;;;9.18;1.45;;;;;;;;;;4948656;29;20046;-60
2022/05/21 09:41:18;;;;;;;6.43;1.25;;;;;;;;;;4948427;29;20053;-60
2022/05/21 09:46:37;;;;;;;12.27;2.15;;;;;;;;;;4948751;29;20103;-60
2022/05/21 09:49:23;;;;;;;10.77;1.80;;;;;;;;;;4949247;29;20050;-59
2022/05/21 09:51:58;;;;;;;8.23;1.77;;;;;;;;;;4941643;29;20048;-60
2022/05/21 09:54:27;;;;;;;7.82;1.30;;;;;;;;;;4929604;29;20040;-60
2022/05/21 09:56:53;;;;;;;8.55;2.20;;;;;;;;;;4933061;29;20047;-59
2022/05/21 09:59:21;;;;;;;12.48;1.60;;;;;;;;;;4930524;29;20517;-59
2022/05/21 10:01:49;;;;;;;9.60;1.27;;;;;;;;;;4933689;29;20035;-59
2022/05/21 10:04:29;;;;;;;6.13;1.55;;;;;;;;;;4932648;29;20379;-60
2022/05/21 10:06:58;;;;;;;11.27;1.80;;;;;;;;;;4929610;29;20055;-60
2022/05/21 10:12:18;;;;;;;8.80;1.10;;;;;;;;;;4929475;29;20060;-60
2022/05/21 10:14:49;;;;;;;9.25;1.42;;;;;;;;;;4938400;29;20661;-59
2022/05/21 10:17:19;;;;;;;9.40;1.60;;;;;;;;;;4939458;29;20062;-60
2022/05/21 10:19:54;;;;;;;6.88;1.10;;;;;;;;;;4943458;29;20553;-59
2022/05/21 10:22:29;;;;;;;9.20;1.10;;;;;;;;;;4930256;29;20044;-59
2022/05/21 10:25:04;;;;;;;8.88;1.40;;;;;;;;;;4941679;29;20472;-59
2022/05/21 10:27:39;;;;;;;10.20;1.50;;;;;;;;;;4941211;29;20050;-59
2022/05/21 10:30:09;;;;;;;9.45;1.17;;;;;;;;;;4942495;29;20433;-60
2022/05/21 10:32:48;;;;;;;10.75;1.20;;;;;;;;;;4942964;29;20130;-59
2022/05/21 10:35:28;;;;;;;7.00;1.23;;;;;;;;;;4943770;29;20090;-60
2022/05/21 10:38:02;;;;;;;6.85;1.00;;;;;;;;;;4944919;29;20055;-59
2022/05/21 10:40:28;;;;;;;9.52;1.23;;;;;;;;;;4945511;29;20054;-59
2022/05/21 10:43:06;;;;;;;7.85;1.15;;;;;;;;;;4944047;29;20102;-59
2022/05/21 10:45:33;;;;;;;6.15;0.98;;;;;;;;;;4945948;29;20059;-59
2022/05/21 10:48:22;;;;;;;7.22;1.10;;;;;;;;;;4945827;29;20035;-59
2022/05/21 10:50:54;;;;;;;6.70;1.67;;;;;;;;;;4943686;29;20059;-59
2022/05/21 10:53:31;;;;;;;6.80;1.50;;;;;;;;;;4945816;28;20055;-59
2022/05/21 10:56:12;;;;;;;9.07;1.38;;;;;;;;;;4946141;29;20078;-59
2022/05/21 10:58:50;;;;;;;4.95;1.20;;;;;;;;;;4945519;29;20512;-59
2022/05/21 11:01:24;;;;;;;11.20;1.30;;;;;;;;;;4945232;29;20047;-59
2022/05/21 11:03:51;;;;;;;9.05;1.05;;;;;;;;;;4945923;29;20497;-59
2022/05/21 11:06:19;;;;;;;7.93;1.38;;;;;;;;;;4944837;29;20079;-59
2022/05/21 11:08:45;;;;;;;11.35;1.77;;;;;;;;;;4944449;28;20134;-59
2022/05/21 11:11:26;;;;;;;10.20;1.17;;;;;;;;;;4945605;29;20046;-59
2022/05/21 11:13:57;;;;;;;7.72;0.90;;;;;;;;;;4943834;28;20063;-59
2022/05/21 11:16:29;;;;;;;9.32;1.35;;;;;;;;;;4945620;28;20066;-59
2022/05/21 11:18:59;;;;;;;6.63;1.02;;;;;;;;;;4945639;28;20098;-59
2022/05/21 11:21:33;;;;;;;7.97;1.08;;;;;;;;;;4944469;28;20055;-59
2022/05/21 11:24:02;;;;;;;7.43;1.05;;;;;;;;;;4945252;29;20520;-59
2022/05/21 11:26:43;;;;;;;6.78;1.20;;;;;;;;;;4944936;29;20047;-59
2022/05/21 11:29:19;;;;;;;7.60;1.35;;;;;;;;;;4945458;29;20549;-59
2022/05/21 11:37:24;;;;;;;8.68;1.50;;;;;;;;;;4944724;29;20051;-59
2022/05/21 11:39:52;;;;;;;9.63;1.35;;;;;;;;;;4945115;29;20761;-60
2022/05/21 11:42:19;;;;;;;11.68;1.08;;;;;;;;;;4944767;29;20043;-60
2022/05/21 11:44:55;;;;;;;10.23;1.67;;;;;;;;;;4945373;28;20106;-60
2022/05/21 11:47:21;;;;;;;9.23;1.27;;;;;;;;;;4944660;28;20341;-60
2022/05/21 11:50:13;;;;;;;9.90;1.35;;;;;;;;;;4944096;29;20047;-60
2022/05/21 11:52:41;;;;;;;7.15;1.00;;;;;;;;;;4944563;28;20409;-60
2022/05/21 11:55:09;;;;;;;3.67;0.80;;;;;;;;;;4944611;28;20549;-60
2022/05/21 11:57:40;;;;;;;11.95;1.50;;;;;;;;;;4944811;29;20502;-60
2022/05/21 12:00:08;;;;;;;5.97;1.10;;;;;;;;;;4944865;29;20162;-60
2022/05/21 12:02:36;;;;;;;10.48;1.17;;;;;;;;;;4944246;29;20043;-60
2022/05/21 12:05:05;;;;;;;5.50;0.93;;;;;;;;;;4944578;28;20073;-60
2022/05/21 12:07:46;;;;;;;9.57;1.15;;;;;;;;;;4944987;29;20051;-60
2022/05/21 12:10:18;;;;;;;7.40;1.77;;;;;;;;;;4944642;29;20050;-60
2022/05/21 12:13:03;;;;;;;10.35;1.15;;;;;;;;;;4943966;29;20061;-60
2022/05/21 12:15:38;;;;;;;10.20;1.10;;;;;;;;;;4943924;28;20409;-59
2022/05/21 12:18:06;;;;;;;7.60;1.63;;;;;;;;;;4944714;29;20059;-60
2022/05/21 12:20:43;;;;;;;10.07;1.10;;;;;;;;;;4943078;29;20087;-60
2022/05/21 12:23:12;;;;;;;7.97;1.00;;;;;;;;;;4944625;29;20146;-60
2022/05/21 12:25:44;;;;;;;9.07;1.88;;;;;;;;;;4944216;29;20049;-60
2022/05/21 12:28:12;;;;;;;12.18;2.60;;;;;;;;;;4944696;29;20057;-60
2022/05/21 12:30:39;;;;;;;6.20;1.23;;;;;;;;;;4943579;29;20079;-60
2022/05/21 12:33:07;;;;;;;11.35;2.80;;;;;;;;;;4944860;29;20198;-60
2022/05/21 12:35:44;;;;;;;8.65;1.27;;;;;;;;;;4943737;29;20051;-60
2022/05/21 12:38:17;;;;;;;13.60;2.35;;;;;;;;;;4944042;29;20059;-59
2022/05/21 12:40:49;;;;;;;12.43;1.85;;;;;;;;;;4944007;29;20220;-60
2022/05/21 12:43:16;;;;;;;7.13;0.98;;;;;;;;;;4943736;29;20062;-60
2022/05/21 12:45:44;;;;;;;10.75;1.58;;;;;;;;;;4944479;29;20051;-60
2022/05/21 12:48:11;;;;;;;8.93;1.13;;;;;;;;;;4944434;29;20244;-60
2022/05/21 12:50:46;;;;;;;5.38;0.77;;;;;;;;;;4942310;29;20039;-59
2022/05/21 12:53:12;;;;;;;4.55;0.98;;;;;;;;;;4942586;29;20090;-59
2022/05/21 12:55:38;;;;;;;7.93;0.90;;;;;;;;;;4944116;29;20509;-59
2022/05/21 12:58:08;;;;;;;3.80;0.85;;;;;;;;;;4944440;29;20090;-59
2022/05/21 13:00:35;;;;;;;5.80;1.00;;;;;;;;;;4944434;29;20054;-59
2022/05/21 13:03:06;;;;;;;7.60;0.98;;;;;;;;;;4944464;29;20153;-59
2022/05/21 13:05:34;;;;;;;5.72;0.75;;;;;;;;;;4943250;29;20113;-59
2022/05/21 13:08:02;;;;;;;3.97;0.77;;;;;;;;;;4944510;29;20047;-58
2022/05/21 13:10:30;;;;;;;13.82;0.80;;;;;;;;;;4958071;28;20379;-59
2022/05/21 13:12:58;;;;;;;4.30;0.88;;;;;;;;;;4943808;29;20647;-59
2022/05/21 13:15:31;;;;;;;7.28;2.08;;;;;;;;;;4943768;29;20115;-59
2022/05/21 13:18:03;;;;;;;6.90;1.17;;;;;;;;;;4944231;29;20059;-59
2022/05/21 13:20:50;;;;;;;8.95;0.90;;;;;;;;;;4943198;29;20049;-60
2022/05/21 13:23:26;;;;;;;12.13;1.10;;;;;;;;;;4941952;29;20051;-59
2022/05/21 13:25:54;;;;;;;5.30;0.77;;;;;;;;;;4942554;29;20047;-60
2022/05/21 13:28:21;;;;;;;9.07;1.20;;;;;;;;;;4941041;29;20133;-60
2022/05/21 13:30:47;;;;;;;9.03;1.63;;;;;;;;;;4943582;28;20051;-60
2022/05/21 13:33:27;;;;;;;9.57;1.35;;;;;;;;;;4945411;29;20295;-59
2022/05/21 13:35:56;;;;;;;7.50;1.10;;;;;;;;;;4946663;29;20086;-59
2022/05/21 13:38:33;;;;;;;5.20;0.60;;;;;;;;;;4946985;29;20134;-59
2022/05/21 13:41:00;;;;;;;5.15;0.63;;;;;;;;;;4947519;29;20577;-59
2022/05/21 13:43:31;;;;;;;8.77;0.93;;;;;;;;;;4947197;29;20047;-59
2022/05/21 13:45:59;;;;;;;5.68;0.63;;;;;;;;;;4947602;28;20047;-59
2022/05/21 13:48:28;;;;;;;7.03;0.90;;;;;;;;;;4947111;29;20577;-59
2022/05/21 13:50:55;;;;;;;4.30;0.80;;;;;;;;;;4946092;29;20089;-59
2022/05/21 13:53:24;;;;;;;4.10;0.93;;;;;;;;;;4947093;29;20047;-58
2022/05/21 13:55:55;;;;;;;7.90;1.17;;;;;;;;;;4947706;29;20051;-60
2022/05/21 13:58:27;;;;;;;5.20;0.90;;;;;;;;;;4946860;29;20568;-60
2022/05/21 14:00:54;;;;;;;7.85;1.17;;;;;;;;;;4947042;29;20070;-60
2022/05/21 14:03:26;;;;;;;6.65;1.10;;;;;;;;;;4946971;29;20118;-60
2022/05/21 14:05:54;;;;;;;5.93;1.20;;;;;;;;;;4946492;29;20133;-60
2022/05/21 14:08:24;;;;;;;10.93;1.10;;;;;;;;;;4941197;29;20047;-60
2022/05/21 14:10:58;;;;;;;8.68;1.48;;;;;;;;;;4946466;29;20490;-60
2022/05/21 14:13:27;;;;;;;11.27;1.45;;;;;;;;;;4945867;29;20102;-60
2022/05/21 14:15:54;;;;;;;8.90;1.23;;;;;;;;;;4946504;29;20058;-60
2022/05/21 14:18:27;;;;;;;8.90;1.02;;;;;;;;;;4946307;29;20055;-60
2022/05/21 14:21:00;;;;;;;9.30;1.10;;;;;;;;;;4946105;28;20047;-60
2022/05/21 14:23:30;;;;;;;5.90;0.80;;;;;;;;;;4945109;29;20047;-60
2022/05/21 14:26:09;;;;;;;5.28;0.88;;;;;;;;;;4943549;29;20513;-60
2022/05/21 14:28:36;;;;;;;6.90;0.90;;;;;;;;;;4941631;29;20043;-60
2022/05/21 14:31:20;;;;;;;6.82;1.20;;;;;;;;;;4943752;29;20050;-60
2022/05/21 14:33:53;;;;;;;9.10;1.77;;;;;;;;;;4943747;29;20051;-61
2022/05/21 14:36:22;;;;;;;10.25;1.42;;;;;;;;;;4944832;29;20039;-61
2022/05/21 14:38:48;;;;;;;6.07;1.10;;;;;;;;;;4940957;29;20452;-60
2022/05/21 14:41:28;;;;;;;4.80;1.00;;;;;;;;;;4943354;29;20035;-60
2022/05/21 14:43:55;;;;;;;7.75;1.20;;;;;;;;;;4944389;28;20161;-60
2022/05/21 14:49:06;;;;;;;9.20;1.88;;;;;;;;;;4943094;29;20505;-61
2022/05/21 14:54:17;;;;;;;9.48;1.02;;;;;;;;;;4944251;29;20043;-61
2022/05/21 14:56:43;;;;;;;7.68;1.02;;;;;;;;;;4944683;29;20122;-60
2022/05/21 14:59:09;;;;;;;5.95;1.20;;;;;;;;;;4942733;29;20237;-60
2022/05/21 15:01:35;;;;;;;7.00;1.10;;;;;;;;;;4944754;29;20117;-60
2022/05/21 15:04:02;;;;;;;7.43;1.08;;;;;;;;;;4943752;29;20054;-61
2022/05/21 15:06:29;;;;;;;8.43;1.25;;;;;;;;;;4928784;29;20051;-60
2022/05/21 15:08:57;;;;;;;5.43;1.08;;;;;;;;;;4927688;28;20425;-60
2022/05/21 15:11:25;;;;;;;10.70;1.50;;;;;;;;;;4925372;29;20523;-59
2022/05/21 15:13:51;;;;;;;8.75;1.33;;;;;;;;;;4929272;29;20126;-59
2022/05/21 15:16:18;;;;;;;7.90;0.80;;;;;;;;;;4925101;29;20078;-59
2022/05/21 15:18:44;;;;;;;6.70;1.25;;;;;;;;;;4926524;29;20444;-59
2022/05/21 15:21:14;;;;;;;7.20;1.33;;;;;;;;;;4930868;29;20468;-60
2022/05/21 15:23:40;;;;;;;8.23;1.25;;;;;;;;;;4930188;29;20053;-58